Time;durP1;ratioP1;P1;durP2;ratioP2;P2;SDS_P1;SDS_P2;PMS_P1;PMS_P2;Temp;Humidity;BMP_temperature;BMP_pressure;BME280_temperature;BME280_humidity;BME280_pressure;Samples;Min_cycle;Max_cycle;Signal;HPM_P1;HPM_P2
2023/11/28 00:00:18;;;;;;;;;;;;;;;-1.99;100.00;96233.18;110228;1240;68584;-65
2023/11/28 00:03:08;;;;;;;;;;;;;;;-1.92;100.00;96237.65;110124;1244;59724;-66
2023/11/28 00:05:38;;;;;;;;;;;;;;;-1.87;100.00;96237.80;110274;1242;59751;-65
2023/11/28 00:08:08;;;;;;;;;;;;;;;-1.82;100.00;96236.73;110219;1240;71293;-66
2023/11/28 00:10:39;;;;;;;;;;;;;;;-1.78;100.00;96230.91;110236;1242;68349;-66
2023/11/28 00:13:09;;;;;;;;;;;;;;;-1.73;100.00;96237.36;110199;1242;68516;-66
2023/11/28 00:15:39;;;;;;;;;;;;;;;-1.69;100.00;96238.22;110202;1240;59707;-65
2023/11/28 00:18:10;;;;;;;;;;;;;;;-1.65;100.00;96241.97;110211;1241;59673;-66
2023/11/28 00:20:40;;;;;;;;;;;;;;;-1.62;100.00;96236.55;110263;1242;72065;-66
2023/11/28 00:23:11;;;;;;;;;;;;;;;-1.60;100.00;96230.84;110223;1240;68344;-65
2023/11/28 00:25:41;;;;;;;;;;;;;;;-1.57;100.00;96230.34;110202;1240;69313;-65
2023/11/28 00:28:12;;;;;;;;;;;;;;;-1.49;100.00;96232.59;110182;1242;59737;-66
2023/11/28 00:30:42;;;;;;;;;;;;;;;-1.45;100.00;96245.03;110238;1242;59599;-65
2023/11/28 00:33:12;;;;;;;;;;;;;;;-1.41;100.00;96239.92;110218;1240;71803;-65
2023/11/28 00:35:43;;;;;;;;;;;;;;;-1.38;100.00;96233.63;110266;1240;68497;-65
2023/11/28 00:38:14;;;;;;;;;;;;;;;-1.38;100.00;96228.84;110180;1241;68518;-65
2023/11/28 00:40:45;;;;;;;;;;;;;;;-1.35;100.00;96228.54;110207;1242;59771;-65
2023/11/28 00:43:15;;;;;;;;;;;;;;;-1.33;100.00;96224.16;110178;1244;59681;-65
2023/11/28 00:45:46;;;;;;;;;;;;;;;-1.31;100.00;96222.21;110121;1241;70651;-65
2023/11/28 00:48:16;;;;;;;;;;;;;;;-1.25;100.00;96218.52;110122;1244;69311;-65
2023/11/28 00:50:47;;;;;;;;;;;;;;;-1.23;100.00;96216.39;110190;1242;68331;-65
2023/11/28 00:53:18;;;;;;;;;;;;;;;-1.24;100.00;96203.63;110172;1242;59702;-65
2023/11/28 00:55:49;;;;;;;;;;;;;;;-1.22;100.00;96195.98;110156;1243;59695;-65
2023/11/28 00:58:21;;;;;;;;;;;;;;;-1.20;100.00;96198.66;110168;1241;71676;-66
2023/11/28 01:00:54;;;;;;;;;;;;;;;-1.18;100.00;96194.95;110231;1241;68611;-66
2023/11/28 01:03:24;;;;;;;;;;;;;;;-1.17;100.00;96185.48;110241;1242;69299;-65
2023/11/28 01:05:56;;;;;;;;;;;;;;;-1.16;100.00;96179.11;110169;1240;59727;-65
2023/11/28 01:08:26;;;;;;;;;;;;;;;-1.16;100.00;96171.08;110255;1248;59689;-65
2023/11/28 01:10:59;;;;;;;;;;;;;;;-1.15;100.00;96164.88;110190;1242;71386;-65
2023/11/28 01:13:29;;;;;;;;;;;;;;;-1.11;100.00;96162.67;110262;1242;69276;-65
2023/11/28 01:16:01;;;;;;;;;;;;;;;-1.11;100.00;96161.13;110183;1243;69326;-66
2023/11/28 01:18:34;;;;;;;;;;;;;;;-1.12;100.00;96157.55;110134;1244;59970;-65
2023/11/28 01:21:10;;;;;;;;;;;;;;;-1.12;100.00;96153.28;110217;1242;60090;-66
2023/11/28 01:23:41;;;;;;;;;;;;;;;-1.12;100.00;96152.59;110255;1241;70475;-66
2023/11/28 01:26:13;;;;;;;;;;;;;;;-1.15;100.00;96147.27;110249;1242;69120;-65
2023/11/28 01:28:44;;;;;;;;;;;;;;;-1.17;100.00;96144.96;110186;1242;68388;-65
2023/11/28 01:31:15;;;;;;;;;;;;;;;-1.17;100.00;96143.08;110153;1241;59732;-66
2023/11/28 01:33:47;;;;;;;;;;;;;;;-1.16;100.00;96144.90;110232;1242;59728;-66
2023/11/28 01:36:17;;;;;;;;;;;;;;;-1.15;100.00;96139.59;110192;1241;71480;-66
2023/11/28 01:38:48;;;;;;;;;;;;;;;-1.13;100.00;96128.23;110256;1241;69110;-66
2023/11/28 01:41:19;;;;;;;;;;;;;;;-1.12;100.00;96128.66;110233;1242;68637;-66
2023/11/28 01:43:49;;;;;;;;;;;;;;;-1.09;100.00;96127.69;110245;1242;59753;-66
2023/11/28 01:46:22;;;;;;;;;;;;;;;-1.07;100.00;96121.60;110204;1241;59660;-66
2023/11/28 01:48:56;;;;;;;;;;;;;;;-1.06;100.00;96116.24;110227;1242;71412;-65
2023/11/28 01:51:27;;;;;;;;;;;;;;;-1.04;100.00;96109.13;110126;1244;68504;-66
2023/11/28 01:54:03;;;;;;;;;;;;;;;-1.01;100.00;96106.48;110283;1241;69188;-66
2023/11/28 01:56:36;;;;;;;;;;;;;;;-1.00;100.00;96097.88;110271;1242;59715;-66
2023/11/28 01:59:08;;;;;;;;;;;;;;;-0.98;100.00;96093.83;110277;1243;59634;-65
2023/11/28 02:01:43;;;;;;;;;;;;;;;-0.97;100.00;96088.13;110178;1241;69690;-65
2023/11/28 02:04:14;;;;;;;;;;;;;;;-0.95;100.00;96083.41;110120;1244;68242;-66
2023/11/28 02:06:45;;;;;;;;;;;;;;;-0.94;100.00;96089.20;110096;1241;68510;-66
2023/11/28 02:09:18;;;;;;;;;;;;;;;-0.93;100.00;96082.98;110127;1241;59725;-66
2023/11/28 02:11:49;;;;;;;;;;;;;;;-0.92;100.00;96077.64;110127;1245;59663;-66
2023/11/28 02:14:19;;;;;;;;;;;;;;;-0.90;100.00;96075.48;110215;1244;70735;-65
2023/11/28 02:16:50;;;;;;;;;;;;;;;-0.89;100.00;96067.02;110208;1244;69603;-66
2023/11/28 02:19:22;;;;;;;;;;;;;;;-0.86;100.00;96067.95;110200;1241;69107;-66
2023/11/28 02:21:53;;;;;;;;;;;;;;;-0.84;100.00;96063.04;110186;1241;59811;-66
2023/11/28 02:24:24;;;;;;;;;;;;;;;-0.82;100.00;96063.45;110140;1241;59706;-65
2023/11/28 02:26:55;;;;;;;;;;;;;;;-0.80;100.00;96059.25;110166;1244;70646;-65
2023/11/28 02:29:26;;;;;;;;;;;;;;;-0.78;100.00;96050.79;110152;1241;68488;-65
2023/11/28 02:31:56;;;;;;;;;;;;;;;-0.75;100.00;96047.67;110179;1241;68460;-65
2023/11/28 02:34:27;;;;;;;;;;;;;;;-0.73;100.00;96044.69;110154;1242;59686;-65
2023/11/28 02:37:00;;;;;;;;;;;;;;;-0.70;100.00;96040.77;110191;1245;59699;-65
2023/11/28 02:39:35;;;;;;;;;;;;;;;-0.71;100.00;96039.61;110161;1241;71263;-65
2023/11/28 02:42:06;;;;;;;;;;;;;;;-0.69;100.00;96036.13;110093;1244;68303;-65
2023/11/28 02:44:36;;;;;;;;;;;;;;;-0.69;100.00;96024.99;110151;1243;69426;-65
2023/11/28 02:47:10;;;;;;;;;;;;;;;-0.68;100.00;96014.88;110138;1243;59689;-65
2023/11/28 02:49:41;;;;;;;;;;;;;;;-0.67;100.00;96016.20;110151;1241;59811;-66
2023/11/28 02:52:12;;;;;;;;;;;;;;;-0.68;100.00;96014.02;110123;1245;71968;-65
2023/11/28 02:54:43;;;;;;;;;;;;;;;-0.69;100.00;96010.77;110162;1241;69218;-65
2023/11/28 02:57:15;;;;;;;;;;;;;;;-0.70;100.00;96009.28;110166;1241;69097;-66
2023/11/28 02:59:46;;;;;;;;;;;;;;;-0.71;100.00;96006.27;110215;1241;59706;-66
2023/11/28 03:02:16;;;;;;;;;;;;;;;-0.74;100.00;95995.81;110228;1242;59668;-65
2023/11/28 03:04:46;;;;;;;;;;;;;;;-0.79;100.00;95989.04;110300;1242;71344;-65
2023/11/28 03:07:18;;;;;;;;;;;;;;;-0.83;100.00;95974.54;110274;1241;69654;-65
2023/11/28 03:09:48;;;;;;;;;;;;;;;-0.86;100.00;95965.83;110217;1241;68321;-65
2023/11/28 03:12:21;;;;;;;;;;;;;;;-0.94;100.00;95965.34;110164;1241;59678;-65
2023/11/28 03:14:53;;;;;;;;;;;;;;;-0.97;100.00;95964.67;110229;1242;59698;-65
2023/11/28 03:17:25;;;;;;;;;;;;;;;-1.03;100.00;95967.34;110205;1240;71593;-65
2023/11/28 03:19:57;;;;;;;;;;;;;;;-1.08;100.00;95966.20;110250;1242;69141;-65
2023/11/28 03:22:28;;;;;;;;;;;;;;;-1.11;100.00;95960.23;110173;1244;69316;-65
2023/11/28 03:25:09;;;;;;;;;;;;;;;-1.12;100.00;95948.28;110231;1241;59699;-65
2023/11/28 03:27:41;;;;;;;;;;;;;;;-1.07;100.00;95935.02;110181;1241;59690;-65
2023/11/28 03:30:11;;;;;;;;;;;;;;;-1.05;100.00;95938.38;110207;1242;71408;-65
2023/11/28 03:32:42;;;;;;;;;;;;;;;-1.01;100.00;95938.34;110243;1240;68926;-65
2023/11/28 03:35:12;;;;;;;;;;;;;;;-0.99;100.00;95943.57;110211;1241;69307;-65
2023/11/28 03:37:42;;;;;;;;;;;;;;;-0.98;100.00;95941.30;110198;1242;59756;-65
2023/11/28 03:40:14;;;;;;;;;;;;;;;-0.94;100.00;95943.83;110201;1242;59688;-65
2023/11/28 03:42:44;;;;;;;;;;;;;;;-0.92;100.00;95941.83;110191;1241;71451;-65
2023/11/28 03:45:16;;;;;;;;;;;;;;;-0.87;100.00;95937.95;110219;1240;69407;-65
2023/11/28 03:47:48;;;;;;;;;;;;;;;-0.80;100.00;95932.13;110221;1242;69390;-65
2023/11/28 03:50:18;;;;;;;;;;;;;;;-0.72;100.00;95926.27;110257;1242;59701;-65
2023/11/28 03:52:49;;;;;;;;;;;;;;;-0.66;100.00;95919.80;110226;1241;59696;-64
2023/11/28 03:55:22;;;;;;;;;;;;;;;-0.60;100.00;95915.89;110238;1242;70817;-64
2023/11/28 03:57:52;;;;;;;;;;;;;;;-0.58;100.00;95912.33;110259;1242;68435;-65
2023/11/28 04:00:21;;;;;;;;;;;;;;;-0.56;100.00;95905.56;110211;1242;69618;-65
2023/11/28 04:02:51;;;;;;;;;;;;;;;-0.55;100.00;95899.00;110207;1241;59679;-65
2023/11/28 04:05:22;;;;;;;;;;;;;;;-0.55;100.00;95891.84;110215;1242;59709;-65
2023/11/28 04:07:53;;;;;;;;;;;;;;;-0.57;100.00;95892.58;110231;1242;71461;-65
2023/11/28 04:10:23;;;;;;;;;;;;;;;-0.55;100.00;95893.36;110282;1242;69454;-65
2023/11/28 04:12:54;;;;;;;;;;;;;;;-0.53;100.00;95890.55;110203;1241;67735;-65
2023/11/28 04:15:25;;;;;;;;;;;;;;;-0.51;100.00;95890.08;110110;1240;60085;-65
2023/11/28 04:17:55;;;;;;;;;;;;;;;-0.48;100.00;95885.48;110098;1244;59611;-65
2023/11/28 04:20:26;;;;;;;;;;;;;;;-0.47;100.00;95882.68;110096;1244;71391;-65
2023/11/28 04:22:57;;;;;;;;;;;;;;;-0.47;100.00;95876.36;110256;1242;69233;-65
2023/11/28 04:25:27;;;;;;;;;;;;;;;-0.44;100.00;95872.95;110148;1241;68431;-65
2023/11/28 04:27:58;;;;;;;;;;;;;;;-0.43;100.00;95868.80;110107;1244;59780;-65
2023/11/28 04:30:28;;;;;;;;;;;;;;;-0.42;100.00;95870.41;110223;1240;59636;-65
2023/11/28 04:32:59;;;;;;;;;;;;;;;-0.40;100.00;95868.09;110142;1240;71223;-65
2023/11/28 04:35:30;;;;;;;;;;;;;;;-0.38;100.00;95863.00;110240;1242;69246;-68
2023/11/28 04:38:01;;;;;;;;;;;;;;;-0.35;99.53;95860.61;110277;1241;68417;-65
2023/11/28 04:40:31;;;;;;;;;;;;;;;-0.33;99.39;95853.33;110069;1241;59685;-65
2023/11/28 04:43:03;;;;;;;;;;;;;;;-0.29;98.80;95854.84;110114;1241;59725;-65
2023/11/28 04:45:34;;;;;;;;;;;;;;;-0.29;98.39;95848.31;110219;1240;70545;-65
2023/11/28 04:48:06;;;;;;;;;;;;;;;-0.26;98.74;95845.08;110103;1244;69453;-65
2023/11/28 04:50:36;;;;;;;;;;;;;;;-0.26;98.95;95843.23;110102;1244;68553;-65
2023/11/28 04:53:05;;;;;;;;;;;;;;;-0.28;99.08;95840.73;110099;1241;59700;-65
2023/11/28 04:55:37;;;;;;;;;;;;;;;-0.31;99.83;95840.06;110029;1241;59737;-65
2023/11/28 04:58:06;;;;;;;;;;;;;;;-0.31;99.52;95835.94;110198;1242;71427;-65
2023/11/28 05:00:35;;;;;;;;;;;;;;;-0.31;99.44;95835.22;110215;1241;69390;-65
2023/11/28 05:03:05;;;;;;;;;;;;;;;-0.31;99.93;95834.73;110250;1241;68344;-66
2023/11/28 05:05:35;;;;;;;;;;;;;;;-0.31;99.70;95832.33;110068;1241;59728;-66
2023/11/28 05:08:06;;;;;;;;;;;;;;;-0.30;99.30;95829.87;110223;1242;59689;-65
2023/11/28 05:10:38;;;;;;;;;;;;;;;-0.27;99.42;95826.65;110108;1241;71175;-65
2023/11/28 05:13:10;;;;;;;;;;;;;;;-0.26;99.01;95819.05;110137;1244;69338;-66
2023/11/28 05:15:40;;;;;;;;;;;;;;;-0.22;99.02;95813.56;110213;1240;69383;-65
2023/11/28 05:18:10;;;;;;;;;;;;;;;-0.20;98.82;95813.91;110229;1240;59737;-66
2023/11/28 05:20:39;;;;;;;;;;;;;;;-0.16;98.74;95809.78;110104;1243;59641;-66
2023/11/28 05:23:09;;;;;;;;;;;;;;;-0.12;98.44;95807.00;110166;1240;71953;-66
2023/11/28 05:25:39;;;;;;;;;;;;;;;-0.09;98.20;95805.79;110122;1244;69241;-65
2023/11/28 05:28:10;;;;;;;;;;;;;;;-0.05;97.81;95802.83;110211;1242;68635;-68
2023/11/28 05:30:39;;;;;;;;;;;;;;;-0.02;97.40;95801.45;110293;1242;59633;-65
2023/11/28 05:33:10;;;;;;;;;;;;;;;0.02;96.39;95802.94;110176;1244;59694;-65
2023/11/28 05:35:39;;;;;;;;;;;;;;;0.07;96.38;95797.70;110229;1240;72022;-65
2023/11/28 05:38:09;;;;;;;;;;;;;;;0.14;96.24;95798.85;110144;1244;69847;-65
2023/11/28 05:40:40;;;;;;;;;;;;;;;0.18;95.40;95799.43;110142;1241;69404;-65
2023/11/28 05:43:10;;;;;;;;;;;;;;;0.22;94.61;95792.02;110113;1241;59723;-65
2023/11/28 05:45:39;;;;;;;;;;;;;;;0.28;94.54;95789.30;110190;1241;59692;-64
2023/11/28 05:48:09;;;;;;;;;;;;;;;0.31;93.70;95785.69;110199;1242;71244;-65
2023/11/28 05:50:39;;;;;;;;;;;;;;;0.34;93.85;95784.45;110063;1244;68730;-65
2023/11/28 05:53:08;;;;;;;;;;;;;;;0.40;94.47;95780.84;110198;1241;70049;-66
2023/11/28 05:55:39;;;;;;;;;;;;;;;0.44;94.38;95772.73;110137;1244;59766;-66
2023/11/28 05:58:08;;;;;;;;;;;;;;;0.49;93.99;95767.14;110262;1242;59710;-66
2023/11/28 06:00:39;;;;;;;;;;;;;;;0.54;94.25;95762.73;110238;1240;71413;-66
2023/11/28 06:03:09;;;;;;;;;;;;;;;0.57;93.74;95762.72;110205;1242;68597;-66
2023/11/28 06:05:38;;;;;;;;;;;;;;;0.62;93.12;95761.79;110218;1242;69110;-66
2023/11/28 06:08:11;;;;;;;;;;;;;;;0.67;91.84;95757.17;110113;1244;59705;-66
2023/11/28 06:10:42;;;;;;;;;;;;;;;0.72;92.05;95758.25;110194;1241;59679;-66
2023/11/28 06:13:11;;;;;;;;;;;;;;;0.76;91.51;95753.02;110256;1241;72052;-67
2023/11/28 06:15:41;;;;;;;;;;;;;;;0.79;88.91;95753.36;110195;1241;69178;-68
2023/11/28 06:18:12;;;;;;;;;;;;;;;0.85;89.53;95746.64;110255;1242;69335;-67
2023/11/28 06:20:41;;;;;;;;;;;;;;;0.89;89.80;95746.42;110264;1242;59757;-67
2023/11/28 06:23:11;;;;;;;;;;;;;;;0.92;89.43;95745.04;110120;1241;59670;-67
2023/11/28 06:25:40;;;;;;;;;;;;;;;0.92;88.48;95742.23;110244;1242;71363;-67
2023/11/28 06:28:10;;;;;;;;;;;;;;;0.96;89.85;95736.16;110249;1241;69272;-67
2023/11/28 06:30:40;;;;;;;;;;;;;;;0.99;89.50;95730.72;110282;1241;69316;-67
2023/11/28 06:33:10;;;;;;;;;;;;;;;1.02;88.36;95730.36;110225;1242;59675;-67
2023/11/28 06:35:39;;;;;;;;;;;;;;;1.03;87.27;95724.30;110251;1242;59670;-67
2023/11/28 06:38:09;;;;;;;;;;;;;;;1.10;88.66;95728.86;110122;1245;69845;-67
2023/11/28 06:40:39;;;;;;;;;;;;;;;1.14;87.83;95723.98;110244;1242;69121;-65
2023/11/28 06:43:07;;;;;;;;;;;;;;;1.20;88.45;95723.23;110231;1242;69111;-67
2023/11/28 06:45:38;;;;;;;;;;;;;;;1.25;87.94;95720.13;110266;1240;59666;-69
2023/11/28 06:48:08;;;;;;;;;;;;;;;1.32;87.40;95717.48;110267;1242;59675;-70
2023/11/28 06:50:37;;;;;;;;;;;;;;;1.38;86.65;95714.75;110298;1242;71373;-71
2023/11/28 06:53:07;;;;;;;;;;;;;;;1.44;86.14;95716.35;110220;1242;69219;-72
2023/11/28 06:55:37;;;;;;;;;;;;;;;1.49;84.78;95715.20;110301;1241;68613;-71
2023/11/28 06:58:06;;;;;;;;;;;;;;;1.55;85.06;95719.30;110352;1241;59689;-71
2023/11/28 07:00:36;;;;;;;;;;;;;;;1.59;84.95;95720.08;110501;1242;59680;-71
2023/11/28 07:03:06;;;;;;;;;;;;;;;1.64;84.42;95719.58;110282;1247;71232;-71
2023/11/28 07:05:36;;;;;;;;;;;;;;;1.68;83.67;95719.52;110388;1241;68553;-71
2023/11/28 07:08:05;;;;;;;;;;;;;;;1.75;84.86;95721.08;110356;1241;69332;-71
2023/11/28 07:10:34;;;;;;;;;;;;;;;1.80;83.96;95719.06;110183;1242;59704;-71
2023/11/28 07:13:04;;;;;;;;;;;;;;;1.85;84.11;95711.70;110249;1242;59675;-70
2023/11/28 07:15:37;;;;;;;;;;;;;;;1.90;84.68;95707.05;110157;1240;72443;-70
2023/11/28 07:18:08;;;;;;;;;;;;;;;1.96;84.29;95699.09;110237;1249;69262;-71
2023/11/28 07:20:37;;;;;;;;;;;;;;;2.02;83.07;95701.64;110173;1242;68485;-71
2023/11/28 07:23:06;;;;;;;;;;;;;;;2.10;83.26;95698.77;110239;1240;59734;-69
2023/11/28 07:25:36;;;;;;;;;;;;;;;2.15;82.79;95695.48;110219;1242;59681;-70
2023/11/28 07:28:05;;;;;;;;;;;;;;;2.22;83.25;95691.73;110211;1241;72108;-70
2023/11/28 07:30:34;;;;;;;;;;;;;;;2.27;83.01;95690.52;110355;1248;67508;-71
2023/11/28 07:33:04;;;;;;;;;;;;;;;2.33;83.04;95689.95;110338;1241;69292;-70
2023/11/28 07:35:33;;;;;;;;;;;;;;;2.39;82.49;95685.45;110351;1242;59802;-67
2023/11/28 07:38:03;;;;;;;;;;;;;;;2.42;80.98;95678.36;110204;1242;59650;-67
2023/11/28 07:40:33;;;;;;;;;;;;;;;2.50;82.39;95671.94;110176;1241;71433;-69
2023/11/28 07:43:03;;;;;;;;;;;;;;;2.55;81.29;95670.55;110431;1241;69185;-67
2023/11/28 07:45:33;;;;;;;;;;;;;;;2.59;79.97;95666.68;110190;1242;69271;-68
2023/11/28 07:48:04;;;;;;;;;;;;;;;2.66;79.21;95671.36;110124;1245;59741;-68
2023/11/28 07:50:34;;;;;;;;;;;;;;;2.70;78.72;95665.58;110230;1242;59678;-68
2023/11/28 07:53:05;;;;;;;;;;;;;;;2.77;78.11;95655.16;110259;1239;72212;-68
2023/11/28 07:55:35;;;;;;;;;;;;;;;2.83;79.07;95662.30;110191;1240;69435;-68
2023/11/28 07:58:05;;;;;;;;;;;;;;;2.85;78.23;95660.73;110279;1242;69215;-70
2023/11/28 08:00:36;;;;;;;;;;;;;;;2.89;77.79;95667.88;110214;1241;59666;-71
2023/11/28 08:03:05;;;;;;;;;;;;;;;2.94;77.37;95664.45;110330;1240;59701;-68
2023/11/28 08:05:36;;;;;;;;;;;;;;;2.95;77.00;95665.07;110384;1241;71752;-68
2023/11/28 08:08:05;;;;;;;;;;;;;;;2.99;77.32;95670.30;110637;1240;69252;-67
2023/11/28 08:10:38;;;;;;;;;;;;;;;3.02;77.00;95663.69;110337;1241;69164;-69
2023/11/28 08:13:09;;;;;;;;;;;;;;;3.02;76.51;95656.83;110301;1241;59684;-68
2023/11/28 08:15:38;;;;;;;;;;;;;;;3.08;76.33;95657.77;110241;1241;60121;-68
2023/11/28 08:18:08;;;;;;;;;;;;;;;3.15;77.32;95654.06;110287;1242;70651;-69
2023/11/28 08:20:38;;;;;;;;;;;;;;;3.19;77.12;95653.73;110262;1242;69236;-69
2023/11/28 08:23:08;;;;;;;;;;;;;;;3.23;76.95;95653.30;110311;1243;69335;-69
2023/11/28 08:25:38;;;;;;;;;;;;;;;3.26;77.47;95651.66;110375;1242;59666;-69
2023/11/28 08:28:07;;;;;;;;;;;;;;;3.29;76.77;95652.63;110287;1242;59705;-70
2023/11/28 08:30:36;;;;;;;;;;;;;;;3.33;77.04;95650.33;110308;1241;71439;-69
2023/11/28 08:33:06;;;;;;;;;;;;;;;3.36;76.27;95648.58;110808;1241;69397;-69
2023/11/28 08:35:35;;;;;;;;;;;;;;;3.41;76.77;95644.57;110559;1242;68565;-69
2023/11/28 08:38:05;;;;;;;;;;;;;;;3.45;76.46;95632.39;110211;1242;59681;-69
2023/11/28 08:40:34;;;;;;;;;;;;;;;3.50;76.18;95628.55;110235;1241;59672;-70
2023/11/28 08:43:05;;;;;;;;;;;;;;;3.58;77.10;95619.74;110235;1240;71435;-69
2023/11/28 08:45:34;;;;;;;;;;;;;;;3.64;75.95;95612.78;110247;1242;68490;-69
2023/11/28 08:48:04;;;;;;;;;;;;;;;3.68;75.96;95621.56;110172;1242;69231;-69
2023/11/28 08:50:34;;;;;;;;;;;;;;;3.71;75.50;95617.03;110172;1241;59729;-69
2023/11/28 08:53:03;;;;;;;;;;;;;;;3.76;76.15;95620.15;110174;1241;59699;-69
2023/11/28 08:55:32;;;;;;;;;;;;;;;3.80;76.56;95613.45;110150;1242;70822;-70
2023/11/28 08:58:01;;;;;;;;;;;;;;;3.81;75.88;95604.04;110181;1242;69269;-70
2023/11/28 09:00:31;;;;;;;;;;;;;;;3.84;76.01;95594.58;110173;1241;68358;-70
2023/11/28 09:03:01;;;;;;;;;;;;;;;3.86;76.16;95586.30;110240;1241;59737;-70
2023/11/28 09:05:31;;;;;;;;;;;;;;;3.85;76.46;95576.77;110186;1242;59692;-70
2023/11/28 09:08:01;;;;;;;;;;;;;;;3.86;77.43;95566.16;110202;1242;71408;-70
2023/11/28 09:10:30;;;;;;;;;;;;;;;3.89;77.93;95555.79;110170;1242;69720;-70
2023/11/28 09:13:00;;;;;;;;;;;;;;;3.90;78.56;95546.38;110185;1240;69172;-69
2023/11/28 09:15:29;;;;;;;;;;;;;;;3.90;78.82;95539.13;110183;1242;59724;-70
2023/11/28 09:17:58;;;;;;;;;;;;;;;3.90;79.21;95531.73;110189;1242;59747;-70
2023/11/28 09:20:28;;;;;;;;;;;;;;;3.91;79.76;95522.63;110185;1242;71296;-70
2023/11/28 09:22:57;;;;;;;;;;;;;;;3.94;79.60;95511.94;110142;1242;70185;-70
2023/11/28 09:25:28;;;;;;;;;;;;;;;3.95;79.65;95504.09;110148;1241;68346;-69
2023/11/28 09:27:57;;;;;;;;;;;;;;;3.97;80.04;95497.73;110191;1242;59779;-69
2023/11/28 09:30:26;;;;;;;;;;;;;;;4.01;80.49;95487.44;110181;1242;59624;-69
2023/11/28 09:32:56;;;;;;;;;;;;;;;4.06;80.57;95484.33;110194;1242;70945;-69
2023/11/28 09:35:26;;;;;;;;;;;;;;;4.09;80.97;95480.09;110156;1242;68601;-69
2023/11/28 09:37:55;;;;;;;;;;;;;;;4.12;82.01;95473.50;110205;1243;68323;-69
2023/11/28 09:40:24;;;;;;;;;;;;;;;4.15;81.71;95471.20;110203;1242;59672;-70
2023/11/28 09:42:56;;;;;;;;;;;;;;;4.17;81.89;95473.64;110168;1242;59653;-69
2023/11/28 09:45:26;;;;;;;;;;;;;;;4.19;81.60;95470.91;110218;1242;71404;-70
2023/11/28 09:47:58;;;;;;;;;;;;;;;4.21;81.46;95455.23;110171;1240;69405;-69
2023/11/28 09:50:29;;;;;;;;;;;;;;;4.22;81.59;95439.23;110176;1242;68547;-70
2023/11/28 09:53:00;;;;;;;;;;;;;;;4.22;82.43;95415.27;110161;1242;60158;-69
2023/11/28 09:55:31;;;;;;;;;;;;;;;4.23;82.79;95405.02;110195;1242;59635;-70
2023/11/28 09:58:03;;;;;;;;;;;;;;;4.24;83.45;95395.48;110202;1241;70690;-69
2023/11/28 10:00:33;;;;;;;;;;;;;;;4.27;83.37;95392.67;110194;1242;69091;-69
2023/11/28 10:03:03;;;;;;;;;;;;;;;4.29;83.70;95396.07;110188;1244;69126;-69
2023/11/28 10:05:33;;;;;;;;;;;;;;;4.36;83.93;95398.02;110069;1241;59658;-69
2023/11/28 10:08:04;;;;;;;;;;;;;;;4.42;84.76;95387.33;110203;1241;59681;-69
2023/11/28 10:10:36;;;;;;;;;;;;;;;4.50;84.32;95374.79;110190;1242;70440;-69
2023/11/28 10:13:05;;;;;;;;;;;;;;;4.57;84.39;95366.42;110228;1242;69864;-69
2023/11/28 10:15:34;;;;;;;;;;;;;;;4.62;84.95;95365.34;110181;1242;69930;-68
2023/11/28 10:18:04;;;;;;;;;;;;;;;4.69;84.56;95363.92;110193;1242;59733;-68
2023/11/28 10:20:37;;;;;;;;;;;;;;;4.75;84.35;95357.67;110213;1242;59675;-68
2023/11/28 10:23:06;;;;;;;;;;;;;;;4.83;83.59;95352.85;110220;1243;71725;-68
2023/11/28 10:25:35;;;;;;;;;;;;;;;4.86;82.34;95350.45;110190;1242;69289;-68
2023/11/28 10:28:05;;;;;;;;;;;;;;;4.93;82.56;95346.08;110163;1242;69887;-68
2023/11/28 10:30:36;;;;;;;;;;;;;;;4.99;81.93;95341.58;110165;1242;59731;-68
2023/11/28 10:33:07;;;;;;;;;;;;;;;5.04;80.29;95333.16;110205;1240;59741;-71
2023/11/28 10:35:42;;;;;;;;;;;;;;;5.12;81.16;95327.51;110161;1242;71340;-70
2023/11/28 10:38:15;;;;;;;;;;;;;;;5.19;80.26;95322.98;110256;1243;69216;-70
2023/11/28 10:40:48;;;;;;;;;;;;;;;5.24;79.85;95315.61;110253;1242;69878;-70
2023/11/28 10:43:17;;;;;;;;;;;;;;;5.31;80.07;95309.48;110178;1242;59693;-69
2023/11/28 10:45:47;;;;;;;;;;;;;;;5.37;79.50;95299.82;110219;1242;59733;-69
2023/11/28 10:48:16;;;;;;;;;;;;;;;5.42;79.22;95294.94;110224;1241;70509;-69
2023/11/28 10:50:46;;;;;;;;;;;;;;;5.47;78.90;95290.89;110231;1243;69831;-69
2023/11/28 10:53:16;;;;;;;;;;;;;;;5.50;78.43;95290.43;110239;1243;69198;-69
2023/11/28 10:55:51;;;;;;;;;;;;;;;5.55;78.48;95273.91;110277;1240;59770;-69
2023/11/28 10:58:20;;;;;;;;;;;;;;;5.66;78.16;95268.12;109835;1242;599460;-69
2023/11/28 11:00:54;;;;;;;;;;;;;;;5.80;78.18;95257.04;110243;1240;71978;-69
2023/11/28 11:03:24;;;;;;;;;;;;;;;6.00;78.09;95256.68;110191;1241;68595;-69
2023/11/28 11:05:55;;;;;;;;;;;;;;;6.27;77.38;95251.58;110174;1242;68606;-69
2023/11/28 11:08:23;;;;;;;;;;;;;;;6.55;76.24;95243.28;110248;1242;59709;-69
2023/11/28 11:10:53;;;;;;;;;;;;;;;6.83;74.47;95236.40;110195;1240;59695;-69
2023/11/28 11:13:23;;;;;;;;;;;;;;;7.09;74.56;95227.77;110181;1241;71960;-69
2023/11/28 11:16:01;;;;;;;;;;;;;;;7.31;72.98;95222.20;110189;1244;68477;-69
2023/11/28 11:18:41;;;;;;;;;;;;;;;7.47;71.47;95226.93;110167;1241;69297;-69
2023/11/28 11:21:15;;;;;;;;;;;;;;;7.62;70.86;95208.66;110182;1241;59731;-69
2023/11/28 11:23:46;;;;;;;;;;;;;;;7.65;67.67;95199.00;110199;1242;59728;-69
2023/11/28 11:26:15;;;;;;;;;;;;;;;7.57;66.48;95198.98;110205;1249;70478;-69
2023/11/28 11:28:45;;;;;;;;;;;;;;;7.53;67.12;95196.05;110085;1244;69817;-69
2023/11/28 11:31:15;;;;;;;;;;;;;;;7.43;65.66;95193.19;110180;1242;68533;-69
2023/11/28 11:33:44;;;;;;;;;;;;;;;7.37;67.36;95189.77;110190;1242;59697;-69
2023/11/28 11:36:15;;;;;;;;;;;;;;;7.30;67.19;95179.54;110198;1241;59638;-70
2023/11/28 11:38:50;;;;;;;;;;;;;;;7.17;66.07;95175.67;110369;1241;71419;-68
2023/11/28 11:41:20;;;;;;;;;;;;;;;7.11;66.75;95167.29;110271;1240;69393;-69
2023/11/28 11:43:52;;;;;;;;;;;;;;;7.04;66.83;95156.34;110244;1242;68719;-68
2023/11/28 11:46:27;;;;;;;;;;;;;;;6.97;66.94;95154.11;110185;1242;59728;-68
2023/11/28 11:48:57;;;;;;;;;;;;;;;6.89;66.73;95153.39;110185;1242;59730;-69
2023/11/28 11:51:28;;;;;;;;;;;;;;;6.85;66.49;95146.88;110194;1242;71445;-68
2023/11/28 11:53:58;;;;;;;;;;;;;;;6.83;67.64;95135.95;110201;1242;70370;-68
2023/11/28 11:56:27;;;;;;;;;;;;;;;6.83;67.69;95128.89;110197;1242;69432;-68
2023/11/28 11:59:01;;;;;;;;;;;;;;;6.79;67.57;95124.57;110218;1242;59680;-68
2023/11/28 12:01:32;;;;;;;;;;;;;;;6.79;68.09;95120.58;110177;1242;60049;-68
2023/11/28 12:04:03;;;;;;;;;;;;;;;6.77;68.05;95112.64;110346;1242;71451;-68
2023/11/28 12:06:32;;;;;;;;;;;;;;;6.77;68.77;95097.05;110131;1241;69207;-69
2023/11/28 12:09:02;;;;;;;;;;;;;;;6.78;68.93;95083.88;110198;1242;69188;-68
2023/11/28 12:11:31;;;;;;;;;;;;;;;6.77;68.17;95070.80;110164;1242;59703;-68
2023/11/28 12:14:00;;;;;;;;;;;;;;;6.75;68.73;95060.58;110203;1242;59714;-70
2023/11/28 12:16:29;;;;;;;;;;;;;;;6.74;69.37;95047.84;110174;1242;71367;-68
2023/11/28 12:19:01;;;;;;;;;;;;;;;6.75;69.22;95045.85;110172;1242;69639;-68
2023/11/28 12:21:30;;;;;;;;;;;;;;;6.75;69.17;95050.39;110180;1242;69189;-68
2023/11/28 12:23:59;;;;;;;;;;;;;;;6.77;69.39;95049.15;110201;1242;59688;-70
2023/11/28 12:26:28;;;;;;;;;;;;;;;6.78;69.25;95050.29;110160;1242;59766;-68
2023/11/28 12:28:57;;;;;;;;;;;;;;;6.80;69.82;95052.98;110166;1240;71403;-69
2023/11/28 12:31:26;;;;;;;;;;;;;;;6.80;68.59;95050.24;110225;1242;69202;-69
2023/11/28 12:33:55;;;;;;;;;;;;;;;6.80;67.84;95051.27;110201;1241;70201;-69
2023/11/28 12:36:27;;;;;;;;;;;;;;;6.80;67.66;95045.91;110214;1242;59692;-69
2023/11/28 12:39:00;;;;;;;;;;;;;;;6.81;67.66;95041.98;110194;1242;59715;-69
2023/11/28 12:41:38;;;;;;;;;;;;;;;6.84;67.81;95033.71;110192;1241;71388;-69
2023/11/28 12:44:10;;;;;;;;;;;;;;;6.90;68.33;95025.52;110175;1241;69435;-69
2023/11/28 12:46:40;;;;;;;;;;;;;;;6.99;68.59;95016.41;110150;1241;69174;-69
2023/11/28 12:49:10;;;;;;;;;;;;;;;7.06;68.17;95014.48;110163;1241;59678;-69
2023/11/28 12:51:39;;;;;;;;;;;;;;;7.11;68.47;95016.73;110167;1242;59660;-69
2023/11/28 12:54:11;;;;;;;;;;;;;;;7.18;67.82;95016.63;110234;1242;72062;-69